sensor_id;sensor_type;location;lat;lon;timestamp;pressure;altitude;pressure_sealevel;temperature;humidity
11448;BME280;43755;49.736;8.734;2023-05-08T00:01:30;98154.25;;;14.17;100.00
11448;BME280;43755;49.736;8.734;2023-05-08T00:03:31;98151.66;;;14.16;100.00
11448;BME280;43755;49.736;8.734;2023-05-08T00:05:33;98147.06;;;14.19;100.00
11448;BME280;43755;49.736;8.734;2023-05-08T00:07:35;98148.84;;;14.19;100.00
11448;BME280;43755;49.736;8.734;2023-05-08T00:09:36;98141.41;;;14.25;100.00
11448;BME280;43755;49.736;8.734;2023-05-08T00:11:39;98145.53;;;14.31;100.00
11448;BME280;43755;49.736;8.734;2023-05-08T00:13:40;98145.75;;;14.26;100.00
11448;BME280;43755;49.736;8.734;2023-05-08T00:15:42;98151.25;;;14.23;100.00
11448;BME280;43755;49.736;8.734;2023-05-08T00:17:43;98146.09;;;14.20;100.00
11448;BME280;43755;49.736;8.734;2023-05-08T00:19:45;98146.00;;;14.22;100.00
11448;BME280;43755;49.736;8.734;2023-05-08T00:21:46;98151.41;;;14.20;100.00
11448;BME280;43755;49.736;8.734;2023-05-08T00:23:47;98145.41;;;14.17;100.00
11448;BME280;43755;49.736;8.734;2023-05-08T00:25:49;98145.81;;;14.09;100.00
11448;BME280;43755;49.736;8.734;2023-05-08T00:27:52;98155.53;;;14.10;100.00
11448;BME280;43755;49.736;8.734;2023-05-08T00:29:53;98152.88;;;14.10;100.00
11448;BME280;43755;49.736;8.734;2023-05-08T00:31:54;98150.81;;;14.15;100.00
11448;BME280;43755;49.736;8.734;2023-05-08T00:33:56;98148.06;;;14.17;100.00
11448;BME280;43755;49.736;8.734;2023-05-08T00:35:58;98149.78;;;14.18;100.00
11448;BME280;43755;49.736;8.734;2023-05-08T00:38:00;98152.47;;;14.18;100.00
11448;BME280;43755;49.736;8.734;2023-05-08T00:40:02;98152.47;;;14.18;100.00
11448;BME280;43755;49.736;8.734;2023-05-08T00:42:04;98151.41;;;14.20;100.00
11448;BME280;43755;49.736;8.734;2023-05-08T00:44:06;98152.97;;;14.24;100.00
11448;BME280;43755;49.736;8.734;2023-05-08T00:46:08;98158.19;;;14.26;100.00
11448;BME280;43755;49.736;8.734;2023-05-08T00:48:10;98149.47;;;14.24;100.00
11448;BME280;43755;49.736;8.734;2023-05-08T00:50:12;98150.47;;;14.21;100.00
11448;BME280;43755;49.736;8.734;2023-05-08T00:52:14;98154.00;;;14.22;100.00
11448;BME280;43755;49.736;8.734;2023-05-08T00:54:17;98156.72;;;14.20;100.00
11448;BME280;43755;49.736;8.734;2023-05-08T00:56:19;98151.59;;;14.17;100.00
11448;BME280;43755;49.736;8.734;2023-05-08T00:58:22;98152.25;;;14.05;100.00
11448;BME280;43755;49.736;8.734;2023-05-08T01:00:28;98154.84;;;14.07;100.00
11448;BME280;43755;49.736;8.734;2023-05-08T01:02:30;98151.72;;;13.99;100.00
11448;BME280;43755;49.736;8.734;2023-05-08T01:04:33;98162.78;;;13.91;100.00
11448;BME280;43755;49.736;8.734;2023-05-08T01:06:35;98157.22;;;13.96;100.00
11448;BME280;43755;49.736;8.734;2023-05-08T01:08:36;98155.59;;;13.93;100.00
11448;BME280;43755;49.736;8.734;2023-05-08T01:10:44;98160.03;;;13.92;100.00
11448;BME280;43755;49.736;8.734;2023-05-08T01:12:58;98157.63;;;13.88;100.00
11448;BME280;43755;49.736;8.734;2023-05-08T01:15:11;98161.69;;;13.95;100.00
11448;BME280;43755;49.736;8.734;2023-05-08T01:17:23;98162.78;;;13.91;100.00
11448;BME280;43755;49.736;8.734;2023-05-08T01:19:53;98158.75;;;13.84;100.00
11448;BME280;43755;49.736;8.734;2023-05-08T01:22:01;98168.31;;;13.71;100.00
11448;BME280;43755;49.736;8.734;2023-05-08T01:24:40;98161.94;;;13.73;100.00
11448;BME280;43755;49.736;8.734;2023-05-08T01:29:34;98169.38;;;13.67;100.00
11448;BME280;43755;49.736;8.734;2023-05-08T01:31:50;98159.72;;;13.66;100.00
11448;BME280;43755;49.736;8.734;2023-05-08T01:34:02;98173.09;;;13.64;100.00
11448;BME280;43755;49.736;8.734;2023-05-08T01:36:13;98167.84;;;13.63;100.00
11448;BME280;43755;49.736;8.734;2023-05-08T01:38:24;98167.59;;;13.50;100.00
11448;BME280;43755;49.736;8.734;2023-05-08T01:40:32;98166.06;;;13.46;100.00
11448;BME280;43755;49.736;8.734;2023-05-08T01:42:42;98174.97;;;13.45;100.00
11448;BME280;43755;49.736;8.734;2023-05-08T01:44:48;98177.19;;;13.37;100.00
11448;BME280;43755;49.736;8.734;2023-05-08T01:46:52;98176.63;;;13.30;100.00
11448;BME280;43755;49.736;8.734;2023-05-08T01:48:59;98180.84;;;13.34;100.00
11448;BME280;43755;49.736;8.734;2023-05-08T01:51:05;98177.94;;;13.39;100.00
11448;BME280;43755;49.736;8.734;2023-05-08T01:53:15;98184.97;;;13.40;100.00
11448;BME280;43755;49.736;8.734;2023-05-08T01:55:20;98179.53;;;13.43;100.00
11448;BME280;43755;49.736;8.734;2023-05-08T01:57:27;98184.91;;;13.41;100.00
11448;BME280;43755;49.736;8.734;2023-05-08T01:59:30;98180.59;;;13.39;100.00
11448;BME280;43755;49.736;8.734;2023-05-08T02:01:33;98188.97;;;13.48;100.00
11448;BME280;43755;49.736;8.734;2023-05-08T02:03:36;98179.81;;;13.54;100.00
11448;BME280;43755;49.736;8.734;2023-05-08T02:05:41;98189.97;;;13.46;100.00
11448;BME280;43755;49.736;8.734;2023-05-08T02:07:45;98188.09;;;13.48;100.00
11448;BME280;43755;49.736;8.734;2023-05-08T02:09:47;98183.97;;;13.42;100.00
11448;BME280;43755;49.736;8.734;2023-05-08T02:11:50;98191.84;;;13.44;100.00
11448;BME280;43755;49.736;8.734;2023-05-08T02:13:54;98190.97;;;13.43;100.00
11448;BME280;43755;49.736;8.734;2023-05-08T02:15:58;98190.28;;;13.40;100.00
11448;BME280;43755;49.736;8.734;2023-05-08T02:18:02;98189.81;;;13.32;100.00
11448;BME280;43755;49.736;8.734;2023-05-08T02:20:05;98188.94;;;13.31;100.00
11448;BME280;43755;49.736;8.734;2023-05-08T02:22:09;98188.19;;;13.29;100.00
11448;BME280;43755;49.736;8.734;2023-05-08T02:24:12;98193.50;;;13.29;100.00
11448;BME280;43755;49.736;8.734;2023-05-08T02:26:15;98195.28;;;13.29;100.00
11448;BME280;43755;49.736;8.734;2023-05-08T02:28:17;98199.91;;;13.25;100.00
11448;BME280;43755;49.736;8.734;2023-05-08T02:30:20;98197.09;;;13.28;100.00
11448;BME280;43755;49.736;8.734;2023-05-08T02:32:26;98192.63;;;13.29;100.00
11448;BME280;43755;49.736;8.734;2023-05-08T02:34:29;98198.81;;;13.29;100.00
11448;BME280;43755;49.736;8.734;2023-05-08T02:36:32;98195.06;;;13.33;100.00
11448;BME280;43755;49.736;8.734;2023-05-08T02:38:36;98193.19;;;13.35;100.00
11448;BME280;43755;49.736;8.734;2023-05-08T02:40:44;98191.28;;;13.37;100.00
11448;BME280;43755;49.736;8.734;2023-05-08T02:42:46;98200.13;;;13.38;100.00
11448;BME280;43755;49.736;8.734;2023-05-08T02:44:47;98187.81;;;13.37;100.00
11448;BME280;43755;49.736;8.734;2023-05-08T02:46:55;98192.09;;;13.39;100.00
11448;BME280;43755;49.736;8.734;2023-05-08T02:49:00;98199.25;;;13.37;100.00
11448;BME280;43755;49.736;8.734;2023-05-08T02:51:12;98203.81;;;13.35;100.00
11448;BME280;43755;49.736;8.734;2023-05-08T02:53:19;98200.53;;;13.30;100.00
11448;BME280;43755;49.736;8.734;2023-05-08T02:55:32;98207.94;;;13.24;100.00
11448;BME280;43755;49.736;8.734;2023-05-08T02:57:38;98200.69;;;13.27;100.00
11448;BME280;43755;49.736;8.734;2023-05-08T02:59:45;98200.59;;;13.29;100.00
11448;BME280;43755;49.736;8.734;2023-05-08T03:01:52;98208.56;;;13.29;100.00
11448;BME280;43755;49.736;8.734;2023-05-08T03:04:02;98197.88;;;13.30;100.00
11448;BME280;43755;49.736;8.734;2023-05-08T03:06:08;98199.69;;;13.30;100.00
11448;BME280;43755;49.736;8.734;2023-05-08T03:08:14;98196.28;;;13.26;100.00
11448;BME280;43755;49.736;8.734;2023-05-08T03:10:18;98193.56;;;13.28;100.00
11448;BME280;43755;49.736;8.734;2023-05-08T03:12:25;98196.09;;;13.31;100.00
11448;BME280;43755;49.736;8.734;2023-05-08T03:14:29;98193.50;;;13.29;100.00
11448;BME280;43755;49.736;8.734;2023-05-08T03:16:33;98195.06;;;13.33;100.00
11448;BME280;43755;49.736;8.734;2023-05-08T03:18:48;98198.56;;;13.34;100.00
11448;BME280;43755;49.736;8.734;2023-05-08T03:20:53;98193.44;;;13.31;100.00
11448;BME280;43755;49.736;8.734;2023-05-08T03:22:55;98191.94;;;13.25;100.00
11448;BME280;43755;49.736;8.734;2023-05-08T03:24:58;98192.72;;;13.27;100.00
11448;BME280;43755;49.736;8.734;2023-05-08T03:27:02;98202.56;;;13.25;100.00
11448;BME280;43755;49.736;8.734;2023-05-08T03:29:05;98192.72;;;13.27;100.00
11448;BME280;43755;49.736;8.734;2023-05-08T03:31:07;98194.34;;;13.30;100.00
11448;BME280;43755;49.736;8.734;2023-05-08T03:33:11;98193.25;;;13.34;100.00
11448;BME280;43755;49.736;8.734;2023-05-08T03:35:14;98197.09;;;13.28;100.00
11448;BME280;43755;49.736;8.734;2023-05-08T03:37:16;98186.63;;;13.25;100.00
11448;BME280;43755;49.736;8.734;2023-05-08T03:39:18;98195.84;;;13.18;100.00
11448;BME280;43755;49.736;8.734;2023-05-08T03:41:20;98191.47;;;13.17;100.00
11448;BME280;43755;49.736;8.734;2023-05-08T03:43:22;98189.72;;;13.16;100.00
11448;BME280;43755;49.736;8.734;2023-05-08T03:45:26;98194.03;;;13.19;100.00
11448;BME280;43755;49.736;8.734;2023-05-08T03:47:28;98191.69;;;13.13;100.00
11448;BME280;43755;49.736;8.734;2023-05-08T03:49:30;98188.50;;;13.04;100.00
11448;BME280;43755;49.736;8.734;2023-05-08T03:51:32;98194.00;;;13.01;100.00
11448;BME280;43755;49.736;8.734;2023-05-08T03:53:36;98192.97;;;13.04;100.00
11448;BME280;43755;49.736;8.734;2023-05-08T03:55:37;98191.34;;;13.01;100.00
11448;BME280;43755;49.736;8.734;2023-05-08T03:57:44;98193.25;;;12.98;100.00
11448;BME280;43755;49.736;8.734;2023-05-08T03:59:51;98194.06;;;13.00;100.00
11448;BME280;43755;49.736;8.734;2023-05-08T04:01:59;98196.94;;;12.95;100.00
11448;BME280;43755;49.736;8.734;2023-05-08T04:04:06;98197.00;;;12.94;100.00
11448;BME280;43755;49.736;8.734;2023-05-08T04:06:13;98187.31;;;12.93;100.00
11448;BME280;43755;49.736;8.734;2023-05-08T04:08:19;98199.44;;;12.98;100.00
11448;BME280;43755;49.736;8.734;2023-05-08T04:10:25;98205.53;;;13.00;100.00
11448;BME280;43755;49.736;8.734;2023-05-08T04:12:35;98201.00;;;13.02;100.00
11448;BME280;43755;49.736;8.734;2023-05-08T04:14:44;98198.44;;;13.01;100.00
11448;BME280;43755;49.736;8.734;2023-05-08T04:16:50;98198.56;;;12.98;100.00
11448;BME280;43755;49.736;8.734;2023-05-08T04:18:57;98203.03;;;12.97;100.00
11448;BME280;43755;49.736;8.734;2023-05-08T04:21:02;98203.75;;;13.01;100.00
11448;BME280;43755;49.736;8.734;2023-05-08T04:23:08;98204.63;;;13.01;100.00
11448;BME280;43755;49.736;8.734;2023-05-08T04:25:10;98201.88;;;13.03;100.00
11448;BME280;43755;49.736;8.734;2023-05-08T04:27:12;98206.47;;;12.99;100.00
11448;BME280;43755;49.736;8.734;2023-05-08T04:29:15;98212.16;;;12.92;100.00
11448;BME280;43755;49.736;8.734;2023-05-08T04:31:18;98210.22;;;12.95;100.00
11448;BME280;43755;49.736;8.734;2023-05-08T04:33:19;98212.72;;;12.98;100.00
11448;BME280;43755;49.736;8.734;2023-05-08T04:35:22;98217.97;;;13.00;100.00
11448;BME280;43755;49.736;8.734;2023-05-08T04:37:24;98216.69;;;12.90;100.00
11448;BME280;43755;49.736;8.734;2023-05-08T04:39:26;98219.34;;;12.90;100.00
11448;BME280;43755;49.736;8.734;2023-05-08T04:41:28;98222.06;;;12.88;100.00
11448;BME280;43755;49.736;8.734;2023-05-08T04:43:29;98217.69;;;12.87;100.00
11448;BME280;43755;49.736;8.734;2023-05-08T04:45:30;98219.13;;;12.94;100.00
11448;BME280;43755;49.736;8.734;2023-05-08T04:47:32;98220.00;;;12.95;100.00
11448;BME280;43755;49.736;8.734;2023-05-08T04:49:34;98231.59;;;12.92;100.00
11448;BME280;43755;49.736;8.734;2023-05-08T04:51:36;98230.44;;;12.98;100.00
11448;BME280;43755;49.736;8.734;2023-05-08T04:53:38;98234.66;;;13.02;100.00
11448;BME280;43755;49.736;8.734;2023-05-08T04:55:39;98235.47;;;13.04;100.00
11448;BME280;43755;49.736;8.734;2023-05-08T04:57:41;98232.72;;;13.05;100.00
11448;BME280;43755;49.736;8.734;2023-05-08T04:59:43;98237.97;;;13.07;100.00
11448;BME280;43755;49.736;8.734;2023-05-08T05:01:45;98236.47;;;13.01;100.00
11448;BME280;43755;49.736;8.734;2023-05-08T05:03:47;98238.47;;;12.96;100.00
11448;BME280;43755;49.736;8.734;2023-05-08T05:05:48;98237.53;;;12.97;100.00
11448;BME280;43755;49.736;8.734;2023-05-08T05:07:58;98235.69;;;12.99;100.00
11448;BME280;43755;49.736;8.734;2023-05-08T05:09:59;98239.22;;;13.00;100.00
11448;BME280;43755;49.736;8.734;2023-05-08T05:12:01;98245.09;;;13.06;100.00
11448;BME280;43755;49.736;8.734;2023-05-08T05:14:02;98243.34;;;13.05;100.00
11448;BME280;43755;49.736;8.734;2023-05-08T05:16:07;98247.63;;;13.08;100.00
11448;BME280;43755;49.736;8.734;2023-05-08T05:18:08;98244.97;;;13.08;100.00
11448;BME280;43755;49.736;8.734;2023-05-08T05:20:11;98244.97;;;13.08;100.00
11448;BME280;43755;49.736;8.734;2023-05-08T05:22:12;98254.97;;;13.03;100.00
11448;BME280;43755;49.736;8.734;2023-05-08T05:24:15;98257.72;;;13.01;100.00
11448;BME280;43755;49.736;8.734;2023-05-08T05:26:17;98254.97;;;13.03;100.00
11448;BME280;43755;49.736;8.734;2023-05-08T05:28:18;98254.22;;;13.01;100.00
11448;BME280;43755;49.736;8.734;2023-05-08T05:30:20;98256.03;;;12.82;100.00
11448;BME280;43755;49.736;8.734;2023-05-08T05:32:21;98259.38;;;12.66;100.00
11448;BME280;43755;49.736;8.734;2023-05-08T05:34:22;98255.31;;;12.59;100.00
11448;BME280;43755;49.736;8.734;2023-05-08T05:36:24;98252.22;;;12.68;100.00
11448;BME280;43755;49.736;8.734;2023-05-08T05:38:26;98265.66;;;12.65;100.00
11448;BME280;43755;49.736;8.734;2023-05-08T05:40:28;98260.53;;;12.80;100.00
11448;BME280;43755;49.736;8.734;2023-05-08T05:42:30;98257.88;;;12.80;100.00
11448;BME280;43755;49.736;8.734;2023-05-08T05:44:31;98262.97;;;12.84;100.00
11448;BME280;43755;49.736;8.734;2023-05-08T05:46:32;98270.28;;;12.79;100.00
11448;BME280;43755;49.736;8.734;2023-05-08T05:48:34;98263.81;;;12.85;100.00
11448;BME280;43755;49.736;8.734;2023-05-08T05:50:36;98266.72;;;12.80;100.00
11448;BME280;43755;49.736;8.734;2023-05-08T05:52:38;98258.69;;;12.82;100.00
11448;BME280;43755;49.736;8.734;2023-05-08T05:54:39;98267.78;;;12.95;100.00
11448;BME280;43755;49.736;8.734;2023-05-08T05:56:43;98269.56;;;12.94;100.00
11448;BME280;43755;49.736;8.734;2023-05-08T05:58:44;98272.22;;;12.94;100.00
11448;BME280;43755;49.736;8.734;2023-05-08T06:00:46;98276.44;;;12.98;100.00
11448;BME280;43755;49.736;8.734;2023-05-08T06:02:47;98276.84;;;13.08;100.00
11448;BME280;43755;49.736;8.734;2023-05-08T06:04:50;98278.75;;;13.06;100.00
11448;BME280;43755;49.736;8.734;2023-05-08T06:06:51;98273.19;;;13.12;100.00
11448;BME280;43755;49.736;8.734;2023-05-08T06:08:52;98275.66;;;13.15;100.00
11448;BME280;43755;49.736;8.734;2023-05-08T06:10:54;98278.53;;;13.10;100.00
11448;BME280;43755;49.736;8.734;2023-05-08T06:12:57;98275.88;;;13.10;100.00
11448;BME280;43755;49.736;8.734;2023-05-08T06:14:58;98272.94;;;13.17;100.00
11448;BME280;43755;49.736;8.734;2023-05-08T06:16:59;98275.06;;;13.27;100.00
11448;BME280;43755;49.736;8.734;2023-05-08T06:19:01;98266.94;;;13.13;100.00
11448;BME280;43755;49.736;8.734;2023-05-08T06:21:03;98270.72;;;13.07;100.00
11448;BME280;43755;49.736;8.734;2023-05-08T06:23:04;98276.69;;;12.94;100.00
11448;BME280;43755;49.736;8.734;2023-05-08T06:25:06;98272.81;;;13.01;100.00
11448;BME280;43755;49.736;8.734;2023-05-08T06:27:09;98276.09;;;13.06;100.00
11448;BME280;43755;49.736;8.734;2023-05-08T06:29:11;98273.19;;;13.12;100.00
11448;BME280;43755;49.736;8.734;2023-05-08T06:31:13;98279.81;;;13.21;100.00
11448;BME280;43755;49.736;8.734;2023-05-08T06:33:14;98282.47;;;13.21;100.00
11448;BME280;43755;49.736;8.734;2023-05-08T06:35:16;98279.81;;;13.21;100.00
11448;BME280;43755;49.736;8.734;2023-05-08T06:37:18;98286.34;;;13.13;100.00
11448;BME280;43755;49.736;8.734;2023-05-08T06:39:19;98287.16;;;13.16;100.00
11448;BME280;43755;49.736;8.734;2023-05-08T06:41:21;98283.81;;;13.12;100.00
11448;BME280;43755;49.736;8.734;2023-05-08T06:43:22;98283.41;;;13.20;100.00
11448;BME280;43755;49.736;8.734;2023-05-08T06:45:25;98289.44;;;13.23;100.00
11448;BME280;43755;49.736;8.734;2023-05-08T06:47:26;98284.25;;;13.20;100.00
11448;BME280;43755;49.736;8.734;2023-05-08T06:49:28;98283.28;;;13.23;100.00
11448;BME280;43755;49.736;8.734;2023-05-08T06:51:29;98288.72;;;13.20;100.00
11448;BME280;43755;49.736;8.734;2023-05-08T06:53:31;98287.34;;;13.11;100.00
11448;BME280;43755;49.736;8.734;2023-05-08T06:55:33;98289.59;;;13.01;100.00
11448;BME280;43755;49.736;8.734;2023-05-08T06:57:34;98298.03;;;13.09;100.00
11448;BME280;43755;49.736;8.734;2023-05-08T06:59:36;98297.13;;;13.10;100.00
11448;BME280;43755;49.736;8.734;2023-05-08T07:01:39;98296.31;;;13.08;100.00
11448;BME280;43755;49.736;8.734;2023-05-08T07:03:40;98294.63;;;13.07;100.00
11448;BME280;43755;49.736;8.734;2023-05-08T07:05:42;98296.97;;;13.13;100.00
11448;BME280;43755;49.736;8.734;2023-05-08T07:07:43;98297.78;;;13.16;100.00
11448;BME280;43755;49.736;8.734;2023-05-08T07:09:45;98295.63;;;13.24;100.00
11448;BME280;43755;49.736;8.734;2023-05-08T07:11:46;98300.06;;;13.23;100.00
11448;BME280;43755;49.736;8.734;2023-05-08T07:13:48;98299.34;;;13.20;100.00
11448;BME280;43755;49.736;8.734;2023-05-08T07:15:50;98299.44;;;13.18;100.00
11448;BME280;43755;49.736;8.734;2023-05-08T07:17:53;98308.38;;;13.34;100.00
11448;BME280;43755;49.736;8.734;2023-05-08T07:19:54;98302.72;;;13.23;100.00
11448;BME280;43755;49.736;8.734;2023-05-08T07:21:55;98307.75;;;13.29;100.00
11448;BME280;43755;49.736;8.734;2023-05-08T07:23:57;98308.38;;;13.34;100.00
11448;BME280;43755;49.736;8.734;2023-05-08T07:25:58;98315.44;;;13.17;100.00
11448;BME280;43755;49.736;8.734;2023-05-08T07:28:00;98308.91;;;13.24;100.00
11448;BME280;43755;49.736;8.734;2023-05-08T07:30:01;98311.16;;;13.31;100.00
11448;BME280;43755;49.736;8.734;2023-05-08T07:32:06;98312.75;;;13.35;100.00
11448;BME280;43755;49.736;8.734;2023-05-08T07:34:08;98316.28;;;13.36;100.00
11448;BME280;43755;49.736;8.734;2023-05-08T07:36:10;98310.25;;;13.32;100.00
11448;BME280;43755;49.736;8.734;2023-05-08T07:38:11;98312.59;;;13.38;100.00
11448;BME280;43755;49.736;8.734;2023-05-08T07:40:13;98310.13;;;13.52;100.00
11448;BME280;43755;49.736;8.734;2023-05-08T07:42:14;98312.63;;;13.56;100.00
11448;BME280;43755;49.736;8.734;2023-05-08T07:44:17;98308.03;;;13.59;100.00
11448;BME280;43755;49.736;8.734;2023-05-08T07:46:18;98311.56;;;13.60;100.00
11448;BME280;43755;49.736;8.734;2023-05-08T07:48:20;98310.84;;;13.73;100.00
11448;BME280;43755;49.736;8.734;2023-05-08T07:50:24;98311.16;;;13.84;100.00
11448;BME280;43755;49.736;8.734;2023-05-08T07:52:26;98308.97;;;13.92;100.00
11448;BME280;43755;49.736;8.734;2023-05-08T07:54:27;98317.97;;;14.07;100.00
11448;BME280;43755;49.736;8.734;2023-05-08T07:56:28;98308.72;;;14.14;100.00
11448;BME280;43755;49.736;8.734;2023-05-08T07:58:31;98317.25;;;14.04;100.00
11448;BME280;43755;49.736;8.734;2023-05-08T08:00:32;98313.59;;;13.89;100.00
11448;BME280;43755;49.736;8.734;2023-05-08T08:02:34;98312.03;;;13.85;100.00
11448;BME280;43755;49.736;8.734;2023-05-08T08:04:35;98311.00;;;14.05;100.00
11448;BME280;43755;49.736;8.734;2023-05-08T08:06:38;98317.72;;;14.12;100.00
11448;BME280;43755;49.736;8.734;2023-05-08T08:08:40;98312.34;;;14.13;100.00
11448;BME280;43755;49.736;8.734;2023-05-08T08:10:41;98318.66;;;14.28;100.00
11448;BME280;43755;49.736;8.734;2023-05-08T08:12:42;98317.84;;;14.26;100.00
11448;BME280;43755;49.736;8.734;2023-05-08T08:14:44;98321.50;;;14.42;100.00
11448;BME280;43755;49.736;8.734;2023-05-08T08:16:46;98325.94;;;14.24;100.00
11448;BME280;43755;49.736;8.734;2023-05-08T08:18:47;98323.44;;;14.21;100.00
11448;BME280;43755;49.736;8.734;2023-05-08T08:20:48;98326.38;;;14.32;100.00
11448;BME280;43755;49.736;8.734;2023-05-08T08:22:51;98321.25;;;14.12;100.00
11448;BME280;43755;49.736;8.734;2023-05-08T08:24:54;98332.66;;;14.14;100.00
11448;BME280;43755;49.736;8.734;2023-05-08T08:26:55;98321.16;;;13.97;100.00
11448;BME280;43755;49.736;8.734;2023-05-08T08:28:57;98324.31;;;14.05;100.00
11448;BME280;43755;49.736;8.734;2023-05-08T08:30:58;98323.91;;;14.12;100.00
11448;BME280;43755;49.736;8.734;2023-05-08T08:33:00;98328.75;;;14.04;100.00
11448;BME280;43755;49.736;8.734;2023-05-08T08:35:01;98328.44;;;14.10;100.00
11448;BME280;43755;49.736;8.734;2023-05-08T08:37:04;98327.28;;;14.16;100.00
11448;BME280;43755;49.736;8.734;2023-05-08T08:39:06;98318.50;;;14.14;100.00
11448;BME280;43755;49.736;8.734;2023-05-08T08:41:08;98315.63;;;14.18;100.00
11448;BME280;43755;49.736;8.734;2023-05-08T08:43:09;98318.91;;;14.23;100.00
11448;BME280;43755;49.736;8.734;2023-05-08T08:45:11;98318.09;;;14.21;100.00
11448;BME280;43755;49.736;8.734;2023-05-08T08:47:15;98309.28;;;14.04;100.00
11448;BME280;43755;49.736;8.734;2023-05-08T08:49:23;98317.25;;;14.21;100.00
11448;BME280;43755;49.736;8.734;2023-05-08T08:51:27;98316.69;;;14.14;100.00
11448;BME280;43755;49.736;8.734;2023-05-08T08:53:35;98316.09;;;14.09;100.00
11448;BME280;43755;49.736;8.734;2023-05-08T08:55:43;98316.31;;;14.39;100.00
11448;BME280;43755;49.736;8.734;2023-05-08T08:57:51;98313.78;;;14.53;100.00
11448;BME280;43755;49.736;8.734;2023-05-08T08:59:55;98319.69;;;14.43;100.00
11448;BME280;43755;49.736;8.734;2023-05-08T09:02:05;98316.19;;;14.58;100.00
11448;BME280;43755;49.736;8.734;2023-05-08T09:04:09;98314.47;;;14.57;100.00
11448;BME280;43755;49.736;8.734;2023-05-08T09:06:11;98322.13;;;14.63;100.00
11448;BME280;43755;49.736;8.734;2023-05-08T09:08:12;98326.34;;;14.67;100.00
11448;BME280;43755;49.736;8.734;2023-05-08T09:10:14;98321.31;;;14.78;100.00
11448;BME280;43755;49.736;8.734;2023-05-08T09:12:17;98329.63;;;14.72;100.00
11448;BME280;43755;49.736;8.734;2023-05-08T09:14:18;98318.41;;;14.83;100.00
11448;BME280;43755;49.736;8.734;2023-05-08T09:16:20;98321.25;;;14.95;100.00
11448;BME280;43755;49.736;8.734;2023-05-08T09:18:22;98333.09;;;14.90;100.00
11448;BME280;43755;49.736;8.734;2023-05-08T09:20:23;98327.59;;;14.93;100.00
11448;BME280;43755;49.736;8.734;2023-05-08T09:22:26;98334.84;;;14.73;100.00
11448;BME280;43755;49.736;8.734;2023-05-08T09:24:53;98335.19;;;14.67;100.00
11448;BME280;43755;49.736;8.734;2023-05-08T09:26:54;98333.25;;;14.87;100.00
11448;BME280;43755;49.736;8.734;2023-05-08T09:29:11;98334.16;;;15.19;100.00
11448;BME280;43755;49.736;8.734;2023-05-08T09:31:13;98335.25;;;15.46;100.00
11448;BME280;43755;49.736;8.734;2023-05-08T09:33:14;98336.03;;;15.48;100.00
11448;BME280;43755;49.736;8.734;2023-05-08T09:35:15;98334.31;;;15.31;100.00
11448;BME280;43755;49.736;8.734;2023-05-08T09:37:17;98330.50;;;15.51;100.00
11448;BME280;43755;49.736;8.734;2023-05-08T09:39:22;98342.22;;;15.48;100.00
11448;BME280;43755;49.736;8.734;2023-05-08T09:41:24;98342.25;;;15.94;100.00
11448;BME280;43755;49.736;8.734;2023-05-08T09:43:25;98343.06;;;16.10;100.00
11448;BME280;43755;49.736;8.734;2023-05-08T09:45:30;98346.78;;;16.22;100.00
11448;BME280;43755;49.736;8.734;2023-05-08T09:47:34;98340.91;;;16.31;100.00
11448;BME280;43755;49.736;8.734;2023-05-08T09:49:38;98346.66;;;16.53;100.00
11448;BME280;43755;49.736;8.734;2023-05-08T09:51:50;98340.78;;;16.62;100.00
11448;BME280;43755;49.736;8.734;2023-05-08T09:53:52;98359.22;;;16.67;100.00
11448;BME280;43755;49.736;8.734;2023-05-08T09:55:54;98354.03;;;16.64;100.00
11448;BME280;43755;49.736;8.734;2023-05-08T09:57:56;98353.53;;;16.57;100.00
11448;BME280;43755;49.736;8.734;2023-05-08T10:00:03;98354.34;;;16.59;100.00
11448;BME280;43755;49.736;8.734;2023-05-08T10:02:11;98344.78;;;16.69;100.00
11448;BME280;43755;49.736;8.734;2023-05-08T10:04:15;98354.97;;;16.49;100.00
11448;BME280;43755;49.736;8.734;2023-05-08T10:06:16;98352.91;;;16.38;100.00
11448;BME280;43755;49.736;8.734;2023-05-08T10:08:19;98359.25;;;16.37;100.00
11448;BME280;43755;49.736;8.734;2023-05-08T10:10:25;98360.06;;;16.37;100.00
11448;BME280;43755;49.736;8.734;2023-05-08T10:12:27;98355.06;;;16.47;100.00
11448;BME280;43755;49.736;8.734;2023-05-08T10:14:28;98359.69;;;16.29;100.00
11448;BME280;43755;49.736;8.734;2023-05-08T10:16:34;98358.00;;;16.43;100.00
11448;BME280;43755;49.736;8.734;2023-05-08T10:18:38;98355.19;;;16.60;100.00
11448;BME280;43755;49.736;8.734;2023-05-08T10:20:45;98355.19;;;16.60;100.00
11448;BME280;43755;49.736;8.734;2023-05-08T10:22:48;98355.59;;;16.82;100.00
11448;BME280;43755;49.736;8.734;2023-05-08T10:24:51;98355.13;;;16.90;100.00
11448;BME280;43755;49.736;8.734;2023-05-08T10:26:57;98363.13;;;16.90;100.00
11448;BME280;43755;49.736;8.734;2023-05-08T10:29:06;98356.53;;;16.95;100.00
11448;BME280;43755;49.736;8.734;2023-05-08T10:31:10;98364.56;;;16.67;100.00
11448;BME280;43755;49.736;8.734;2023-05-08T10:33:14;98360.81;;;16.69;100.00
11448;BME280;43755;49.736;8.734;2023-05-08T10:35:20;98356.66;;;16.35;100.00
11448;BME280;43755;49.736;8.734;2023-05-08T10:37:21;98357.81;;;16.02;100.00
11448;BME280;43755;49.736;8.734;2023-05-08T10:39:24;98353.72;;;16.10;100.00
11448;BME280;43755;49.736;8.734;2023-05-08T10:41:26;98357.38;;;16.23;100.00
11448;BME280;43755;49.736;8.734;2023-05-08T10:43:29;98355.75;;;16.21;100.00
11448;BME280;43755;49.736;8.734;2023-05-08T10:45:31;98354.44;;;16.28;100.00
11448;BME280;43755;49.736;8.734;2023-05-08T10:47:44;98353.28;;;16.32;100.00
11448;BME280;43755;49.736;8.734;2023-05-08T10:49:57;98353.97;;;16.35;100.00